createdAt,value
2018-06-16T00:01:35.058Z,74.60
2018-06-16T00:04:04.748Z,74.80
2018-06-16T00:06:34.450Z,75.30
2018-06-16T00:09:06.296Z,75.60
2018-06-16T00:11:35.975Z,74.80
2018-06-16T00:14:05.718Z,74.70
2018-06-16T00:16:35.414Z,74.70
2018-06-16T00:19:05.106Z,74.90
2018-06-16T00:21:34.815Z,75.50
2018-06-16T00:24:04.539Z,75.60
2018-06-16T00:26:34.266Z,75.60
2018-06-16T00:29:03.974Z,75.40
2018-06-16T00:31:33.682Z,75.40
2018-06-16T00:34:03.423Z,75.70
2018-06-16T00:36:33.141Z,76.10
2018-06-16T00:39:02.903Z,76.30
2018-06-16T00:41:32.651Z,76.70
2018-06-16T00:44:02.347Z,76.70
2018-06-16T00:46:32.110Z,76.80
2018-06-16T00:49:01.819Z,76.30
2018-06-16T00:51:31.526Z,76.40
2018-06-16T00:54:01.220Z,76.70
2018-06-16T00:56:30.910Z,76.80
2018-06-16T00:59:00.610Z,77.00
2018-06-16T01:01:30.270Z,76.40
2018-06-16T01:03:59.926Z,76.30
2018-06-16T01:06:29.795Z,76.50
2018-06-16T01:08:59.463Z,77.10
2018-06-16T01:11:29.099Z,76.80
2018-06-16T01:13:58.798Z,77.20
2018-06-16T01:16:28.451Z,77.70
2018-06-16T01:18:58.127Z,78.70
2018-06-16T01:21:27.770Z,77.90
2018-06-16T01:23:57.641Z,77.50
2018-06-16T01:26:27.292Z,77.90
2018-06-16T01:28:56.955Z,77.20
2018-06-16T01:31:26.603Z,77.70
2018-06-16T01:33:56.323Z,78.20
2018-06-16T01:36:25.977Z,79.10
2018-06-16T01:38:55.630Z,79.00
2018-06-16T01:41:25.274Z,79.10
2018-06-16T01:43:54.943Z,78.90
2018-06-16T01:46:24.582Z,78.80
2018-06-16T01:48:54.247Z,79.10
2018-06-16T01:51:23.887Z,79.10
2018-06-16T01:53:53.550Z,79.20
2018-06-16T01:56:23.202Z,79.20
2018-06-16T01:58:53.163Z,79.40
2018-06-16T02:01:22.839Z,79.70
2018-06-16T02:03:52.519Z,79.90
2018-06-16T02:06:22.201Z,79.10
2018-06-16T02:08:51.897Z,79.00
2018-06-16T02:11:21.658Z,79.40
2018-06-16T02:13:51.401Z,79.10
2018-06-16T02:16:21.075Z,78.90
2018-06-16T02:18:50.719Z,79.70
2018-06-16T02:21:20.383Z,79.50
2018-06-16T02:23:50.437Z,79.00
2018-06-16T02:26:20.116Z,78.70
2018-06-16T02:28:49.863Z,79.00
2018-06-16T02:31:19.529Z,79.00
2018-06-16T02:33:49.248Z,78.70
2018-06-16T02:36:18.939Z,79.60
2018-06-16T02:38:48.638Z,79.30
2018-06-16T02:41:18.434Z,79.60
2018-06-16T02:43:48.156Z,78.80
2018-06-16T02:46:17.842Z,78.90
2018-06-16T02:48:47.530Z,79.50
2018-06-16T02:51:17.258Z,80.20
2018-06-16T02:53:46.942Z,80.50
2018-06-16T02:56:16.695Z,80.50
2018-06-16T02:58:47.337Z,80.50
2018-06-16T03:01:17.063Z,80.40
2018-06-16T03:03:46.727Z,80.40
2018-06-16T03:06:16.430Z,80.50
2018-06-16T03:11:15.433Z,80.80
2018-06-16T03:13:45.149Z,81.80
2018-06-16T03:16:14.851Z,80.80
2018-06-16T03:18:44.706Z,80.40
2018-06-16T03:21:14.401Z,80.50
2018-06-16T03:23:44.099Z,81.10
2018-06-16T03:26:13.835Z,81.00
2018-06-16T03:28:43.538Z,81.10
2018-06-16T03:31:13.248Z,80.90
2018-06-16T03:33:42.933Z,80.50
2018-06-16T03:36:12.619Z,80.70
2018-06-16T03:38:42.291Z,80.50
2018-06-16T03:41:11.990Z,80.90
2018-06-16T03:43:41.667Z,81.10
2018-06-16T03:46:11.388Z,81.10
2018-06-16T03:48:41.091Z,81.40
2018-06-16T03:51:10.794Z,80.90
2018-06-16T03:53:40.532Z,80.80
2018-06-16T03:56:10.219Z,81.00
2018-06-16T03:58:39.891Z,81.30
2018-06-16T04:01:09.618Z,80.60
2018-06-16T04:03:39.337Z,80.80
2018-06-16T04:08:38.331Z,80.50
2018-06-16T04:11:08.048Z,81.10
2018-06-16T04:13:37.715Z,81.20
2018-06-16T04:16:07.466Z,81.80
2018-06-16T04:18:37.162Z,82.20
2018-06-16T04:21:06.896Z,81.80
2018-06-16T04:23:36.582Z,82.00
2018-06-16T04:26:06.299Z,82.40
2018-06-16T04:28:41.559Z,82.20
2018-06-16T04:31:12.947Z,82.80
2018-06-16T04:33:42.626Z,82.70
2018-06-16T04:36:12.324Z,82.40
2018-06-16T04:38:42.009Z,82.60
2018-06-16T04:41:11.707Z,83.00
2018-06-16T04:43:41.386Z,83.30
2018-06-16T04:46:11.087Z,83.00
2018-06-16T04:48:40.774Z,83.00
2018-06-16T04:51:10.463Z,82.90
2018-06-16T04:53:40.156Z,83.80
2018-06-16T04:56:09.922Z,84.20
2018-06-16T04:58:39.617Z,84.20
2018-06-16T05:01:09.322Z,84.20
2018-06-16T05:03:39.003Z,84.10
2018-06-16T05:06:08.703Z,83.40
2018-06-16T05:08:38.487Z,83.40
2018-06-16T05:11:08.335Z,83.90
2018-06-16T05:13:38.010Z,82.90
2018-06-16T05:16:07.705Z,82.30
2018-06-16T05:18:37.371Z,82.50
2018-06-16T05:21:07.074Z,82.10
2018-06-16T05:23:36.755Z,81.80
2018-06-16T05:26:06.811Z,82.00
2018-06-16T05:28:36.486Z,82.20
2018-06-16T05:31:06.203Z,82.20
2018-06-16T05:33:35.867Z,81.40
2018-06-16T05:36:05.590Z,81.00
2018-06-16T05:38:35.299Z,80.90
2018-06-16T05:41:04.978Z,80.80
2018-06-16T05:43:34.702Z,79.80
2018-06-16T05:46:04.411Z,79.10
2018-06-16T05:48:34.086Z,77.90
2018-06-16T05:51:03.779Z,77.70
2018-06-16T05:53:33.466Z,74.30
2018-06-16T05:56:03.185Z,73.30
2018-06-16T05:58:32.850Z,72.90
2018-06-16T06:01:02.543Z,72.60
2018-06-16T06:03:32.226Z,69.80
2018-06-16T06:06:01.891Z,70.10
2018-06-16T06:08:31.578Z,70.10
2018-06-16T06:11:01.258Z,66.70
2018-06-16T06:13:30.928Z,66.70
2018-06-16T06:16:00.582Z,65.30
2018-06-16T06:18:30.239Z,65.50
2018-06-16T06:23:29.275Z,64.20
2018-06-16T06:25:58.976Z,63.10
2018-06-16T06:28:28.646Z,62.40
2018-06-16T06:30:58.303Z,63.00
2018-06-16T06:33:27.966Z,61.50
2018-06-16T06:35:57.623Z,56.90
2018-06-16T06:38:27.282Z,57.70
2018-06-16T06:40:56.930Z,60.00
2018-06-16T06:43:26.640Z,58.90
2018-06-16T06:45:56.439Z,58.80
2018-06-16T06:48:26.091Z,58.00
2018-06-16T06:50:55.722Z,57.40
2018-06-16T06:53:25.390Z,55.90
2018-06-16T06:55:55.047Z,56.30
2018-06-16T06:58:24.702Z,57.40
2018-06-16T07:00:54.414Z,58.00
2018-06-16T07:03:24.115Z,57.10
2018-06-16T07:05:53.803Z,57.00
2018-06-16T07:08:23.804Z,55.60
2018-06-16T07:10:53.569Z,57.10
2018-06-16T07:13:23.459Z,56.50
2018-06-16T07:15:53.131Z,56.20
2018-06-16T07:18:22.818Z,53.50
2018-06-16T07:20:52.498Z,54.20
2018-06-16T07:23:22.190Z,54.90
2018-06-16T07:25:51.874Z,53.50
2018-06-16T07:28:21.587Z,52.20
2018-06-16T07:30:51.259Z,53.60
2018-06-16T07:33:20.998Z,54.40
2018-06-16T07:35:50.735Z,53.60
2018-06-16T07:38:20.443Z,53.50
2018-06-16T07:40:50.122Z,52.90
2018-06-16T07:43:22.708Z,52.00
2018-06-16T07:45:53.604Z,53.10
2018-06-16T07:48:23.556Z,52.80
2018-06-16T07:50:53.951Z,52.40
2018-06-16T07:53:23.835Z,50.40
2018-06-16T07:55:54.298Z,51.10
2018-06-16T07:58:24.003Z,51.20
2018-06-16T08:00:54.119Z,51.90
2018-06-16T08:03:24.140Z,49.70
2018-06-16T08:05:53.839Z,49.90
2018-06-16T08:08:23.478Z,49.10
2018-06-16T08:10:53.506Z,50.40
2018-06-16T08:13:23.210Z,51.30
2018-06-16T08:15:53.111Z,50.20
2018-06-16T08:18:22.994Z,51.00
2018-06-16T08:20:52.827Z,50.10
2018-06-16T08:23:22.778Z,48.50
2018-06-16T08:25:52.610Z,50.30
2018-06-16T08:28:23.229Z,50.00
2018-06-16T08:30:53.351Z,49.10
2018-06-16T08:33:23.011Z,53.80
2018-06-16T08:35:52.698Z,53.10
2018-06-16T08:38:22.381Z,54.30
2018-06-16T08:40:52.032Z,52.50
2018-06-16T08:43:21.710Z,50.80
2018-06-16T08:45:51.574Z,48.80
2018-06-16T08:48:21.243Z,49.10
2018-06-16T08:50:50.915Z,48.20
2018-06-16T08:53:20.570Z,49.20
2018-06-16T08:55:50.239Z,47.00
2018-06-16T08:58:19.906Z,47.90
2018-06-16T09:00:49.668Z,46.20
2018-06-16T09:03:19.342Z,46.60
2018-06-16T09:05:57.083Z,46.00
2018-06-16T09:08:26.751Z,45.40
2018-06-16T09:13:25.771Z,46.00
2018-06-16T09:15:55.481Z,44.20
2018-06-16T09:18:25.150Z,44.80
2018-06-16T09:20:54.889Z,44.20
2018-06-16T09:23:24.554Z,45.10
2018-06-16T09:25:54.332Z,44.30
2018-06-16T09:28:24.019Z,43.50
2018-06-16T09:30:53.751Z,45.10
2018-06-16T09:33:23.429Z,46.50
2018-06-16T09:35:53.555Z,48.70
2018-06-16T09:38:23.266Z,48.30
2018-06-16T09:40:52.967Z,48.40
2018-06-16T09:43:22.646Z,47.40
2018-06-16T09:45:52.371Z,47.10
2018-06-16T09:48:22.070Z,46.90
2018-06-16T09:50:51.788Z,45.20
2018-06-16T09:53:21.506Z,46.70
2018-06-16T09:55:51.238Z,48.70
2018-06-16T09:58:20.938Z,47.90
2018-06-16T10:00:50.731Z,49.80
2018-06-16T10:03:20.411Z,49.60
2018-06-16T10:05:50.187Z,49.60
2018-06-16T10:08:20.234Z,49.30
2018-06-16T10:10:50.006Z,52.20
2018-06-16T10:13:20.361Z,48.50
2018-06-16T10:15:50.131Z,46.10
2018-06-16T10:18:19.847Z,45.80
2018-06-16T10:20:49.551Z,44.80
2018-06-16T10:23:19.246Z,44.40
2018-06-16T10:25:48.991Z,45.10
2018-06-16T10:28:18.678Z,46.40
2018-06-16T10:30:48.374Z,45.70
2018-06-16T10:33:18.070Z,44.80
2018-06-16T10:35:47.782Z,44.80
2018-06-16T10:38:18.041Z,43.80
2018-06-16T10:40:48.299Z,44.60
2018-06-16T10:43:18.295Z,44.10
2018-06-16T10:45:50.899Z,43.90
2018-06-16T10:48:20.635Z,43.50
2018-06-16T10:50:50.343Z,46.10
2018-06-16T10:53:20.026Z,46.30
2018-06-16T10:55:49.742Z,45.70
2018-06-16T10:58:19.443Z,44.50
2018-06-16T11:00:49.183Z,45.60
2018-06-16T11:03:18.918Z,45.80
2018-06-16T11:05:48.638Z,44.20
2018-06-16T11:08:18.362Z,44.70
2018-06-16T11:10:48.063Z,44.80
2018-06-16T11:13:17.843Z,45.20
2018-06-16T11:15:47.651Z,44.10
2018-06-16T11:18:17.428Z,45.30
2018-06-16T11:20:47.374Z,46.10
2018-06-16T11:23:17.115Z,42.30
2018-06-16T11:25:46.883Z,43.10
2018-06-16T11:28:16.629Z,42.70
2018-06-16T11:30:46.395Z,42.00
2018-06-16T11:33:16.119Z,41.70
2018-06-16T11:35:46.195Z,41.90
2018-06-16T11:38:15.934Z,42.80
2018-06-16T11:40:46.033Z,43.00
2018-06-16T11:43:15.974Z,42.60
2018-06-16T11:45:50.787Z,43.80
2018-06-16T11:48:20.804Z,42.30
2018-06-16T11:50:50.526Z,42.30
2018-06-16T11:53:20.849Z,43.10
2018-06-16T11:55:50.595Z,43.20
2018-06-16T11:58:20.706Z,43.30
2018-06-16T12:00:50.528Z,44.50
2018-06-16T12:03:20.631Z,43.00
2018-06-16T12:05:50.392Z,43.70
2018-06-16T12:08:20.423Z,43.90
2018-06-16T12:10:50.584Z,43.70
2018-06-16T12:13:20.318Z,44.30
2018-06-16T12:15:49.987Z,44.30
2018-06-16T12:18:19.702Z,43.20
2018-06-16T12:20:49.359Z,42.20
2018-06-16T12:23:19.071Z,42.00
2018-06-16T12:25:48.723Z,41.90
2018-06-16T12:28:18.434Z,41.60
2018-06-16T12:30:48.119Z,43.80
2018-06-16T12:33:17.854Z,41.20
2018-06-16T12:35:47.520Z,40.70
2018-06-16T12:38:17.179Z,41.10
2018-06-16T12:40:46.838Z,39.40
2018-06-16T12:43:16.514Z,43.30
2018-06-16T12:45:50.126Z,41.40
2018-06-16T12:48:19.818Z,42.50
2018-06-16T12:50:49.501Z,40.90
2018-06-16T12:53:19.375Z,40.60
2018-06-16T12:55:49.070Z,41.30
2018-06-16T12:58:18.782Z,41.20
2018-06-16T13:00:48.515Z,42.60
2018-06-16T13:03:18.240Z,41.90
2018-06-16T13:05:47.912Z,41.00
2018-06-16T13:08:17.631Z,40.40
2018-06-16T13:10:47.372Z,41.00
2018-06-16T13:13:17.115Z,41.60
2018-06-16T13:15:46.815Z,41.10
2018-06-16T13:18:16.553Z,41.00
2018-06-16T13:20:46.778Z,41.40
2018-06-16T13:23:16.615Z,40.80
2018-06-16T13:25:46.349Z,41.00
2018-06-16T13:28:16.095Z,41.50
2018-06-16T13:30:46.111Z,42.50
2018-06-16T13:33:15.879Z,43.00
2018-06-16T13:35:45.603Z,40.90
2018-06-16T13:38:15.334Z,42.20
2018-06-16T13:40:45.080Z,42.60
2018-06-16T13:43:14.809Z,41.00
2018-06-16T13:45:50.498Z,41.40
2018-06-16T13:48:20.227Z,41.70
2018-06-16T13:50:50.294Z,39.60
2018-06-16T13:53:20.221Z,43.60
2018-06-16T13:55:49.934Z,40.20
2018-06-16T13:58:19.692Z,40.70
2018-06-16T14:00:49.422Z,40.70
2018-06-16T14:03:19.174Z,41.60
2018-06-16T14:05:48.899Z,42.00
2018-06-16T14:08:18.658Z,41.10
2018-06-16T14:10:48.339Z,42.80
2018-06-16T14:13:18.411Z,43.70
2018-06-16T14:15:48.180Z,40.80
2018-06-16T14:18:18.503Z,44.00
2018-06-16T14:20:48.212Z,41.20
2018-06-16T14:23:17.983Z,40.90
2018-06-16T14:25:48.011Z,42.10
2018-06-16T14:28:17.951Z,41.20
2018-06-16T14:30:47.651Z,41.70
2018-06-16T14:33:17.383Z,43.20
2018-06-16T14:35:47.137Z,41.80
2018-06-16T14:38:17.669Z,40.80
2018-06-16T14:40:47.386Z,41.50
2018-06-16T14:43:17.078Z,41.50
2018-06-16T14:45:50.782Z,41.40
2018-06-16T14:48:20.483Z,41.80
2018-06-16T14:50:50.199Z,40.90
2018-06-16T14:53:19.869Z,40.10
2018-06-16T14:55:49.813Z,41.80
2018-06-16T14:58:24.579Z,41.60
2018-06-16T15:00:55.029Z,40.40
2018-06-16T15:03:24.759Z,43.10
2018-06-16T15:05:54.514Z,42.30
2018-06-16T15:08:24.214Z,41.80
2018-06-16T15:10:53.935Z,42.70
2018-06-16T15:13:23.902Z,42.40
2018-06-16T15:15:53.618Z,43.80
2018-06-16T15:18:23.302Z,42.40
2018-06-16T15:20:53.048Z,43.10
2018-06-16T15:23:22.734Z,41.20
2018-06-16T15:25:52.479Z,42.00
2018-06-16T15:28:22.207Z,41.50
2018-06-16T15:30:51.948Z,41.10
2018-06-16T15:33:21.614Z,40.80
2018-06-16T15:35:51.332Z,41.00
2018-06-16T15:38:21.031Z,41.90
2018-06-16T15:40:50.727Z,41.00
2018-06-16T15:43:20.396Z,42.70
2018-06-16T15:45:52.230Z,40.90
2018-06-16T15:48:21.874Z,41.60
2018-06-16T15:50:51.603Z,41.80
2018-06-16T15:53:21.391Z,40.70
2018-06-16T15:55:51.104Z,43.70
2018-06-16T15:58:21.071Z,41.90
2018-06-16T16:00:50.947Z,42.50
2018-06-16T16:03:20.635Z,41.30
2018-06-16T16:05:50.533Z,44.20
2018-06-16T16:08:20.635Z,42.70
2018-06-16T16:10:50.322Z,43.40
2018-06-16T16:13:20.319Z,42.50
2018-06-16T16:15:50.166Z,42.40
2018-06-16T16:18:20.948Z,41.80
2018-06-16T16:20:51.112Z,45.10
2018-06-16T16:23:21.399Z,42.50
2018-06-16T16:25:51.444Z,43.20
2018-06-16T16:28:21.155Z,42.00
2018-06-16T16:30:50.855Z,43.30
2018-06-16T16:33:20.795Z,42.60
2018-06-16T16:35:50.552Z,42.60
2018-06-16T16:38:20.530Z,42.20
2018-06-16T16:40:50.252Z,42.20
2018-06-16T16:43:20.007Z,41.90
2018-06-16T16:45:50.607Z,42.20
2018-06-16T16:48:21.171Z,41.80
2018-06-16T16:50:50.869Z,42.60
2018-06-16T16:53:20.581Z,43.00
2018-06-16T16:55:50.331Z,44.70
2018-06-16T17:00:49.363Z,48.50
2018-06-16T17:03:20.023Z,47.20
2018-06-16T17:05:49.423Z,44.90
2018-06-16T17:08:19.170Z,44.00
2018-06-16T17:10:48.896Z,44.10
2018-06-16T17:13:18.891Z,46.50
2018-06-16T17:15:50.101Z,44.30
2018-06-16T17:18:20.698Z,44.70
2018-06-16T17:20:50.711Z,45.10
2018-06-16T17:23:24.088Z,45.70
2018-06-16T17:25:53.884Z,44.70
2018-06-16T17:28:23.674Z,44.40
2018-06-16T17:30:58.914Z,44.50
2018-06-16T17:33:28.680Z,45.70
2018-06-16T17:36:02.101Z,46.00
2018-06-16T17:38:33.915Z,46.10
2018-06-16T17:41:06.410Z,45.30
2018-06-16T17:43:38.561Z,45.50
2018-06-16T17:46:10.025Z,46.40
2018-06-16T17:48:43.409Z,46.00
2018-06-16T17:51:14.933Z,46.10
2018-06-16T17:53:46.103Z,46.30
2018-06-16T17:56:15.945Z,46.60
2018-06-16T17:58:47.187Z,46.00
2018-06-16T18:01:17.014Z,46.10
2018-06-16T18:03:46.774Z,48.20
2018-06-16T18:06:16.527Z,50.40
2018-06-16T18:08:46.274Z,47.50
2018-06-16T18:11:17.256Z,50.00
2018-06-16T18:13:47.131Z,52.30
2018-06-16T18:16:16.834Z,48.70
2018-06-16T18:18:46.963Z,49.40
2018-06-16T18:21:16.710Z,52.50
2018-06-16T18:23:46.474Z,47.30
2018-06-16T18:26:16.227Z,51.70
2018-06-16T18:28:46.056Z,52.20
2018-06-16T18:31:15.775Z,51.90
2018-06-16T18:33:45.782Z,53.20
2018-06-16T18:36:16.412Z,54.00
2018-06-16T18:38:46.543Z,54.80
2018-06-16T18:41:16.275Z,56.00
2018-06-16T18:43:46.039Z,56.70
2018-06-16T18:46:16.858Z,58.20
2018-06-16T18:48:46.610Z,57.80
2018-06-16T18:51:16.350Z,57.90
2018-06-16T18:53:46.063Z,58.30
2018-06-16T18:56:15.880Z,57.90
2018-06-16T18:58:45.730Z,58.50
2018-06-16T19:03:44.806Z,57.20
2018-06-16T19:06:14.527Z,57.10
2018-06-16T19:08:44.251Z,56.90
2018-06-16T19:11:13.967Z,56.90
2018-06-16T19:13:43.702Z,57.30
2018-06-16T19:16:13.437Z,57.50
2018-06-16T19:18:43.335Z,57.50
2018-06-16T19:21:14.456Z,57.80
2018-06-16T19:23:44.527Z,57.70
2018-06-16T19:26:14.631Z,58.00
2018-06-16T19:28:44.410Z,58.10
2018-06-16T19:31:14.307Z,58.70
2018-06-16T19:33:44.318Z,58.70
2018-06-16T19:36:14.089Z,59.10
2018-06-16T19:38:43.896Z,58.30
2018-06-16T19:41:13.911Z,57.90
2018-06-16T19:43:43.787Z,58.30
2018-06-16T19:46:13.511Z,58.10
2018-06-16T19:48:43.641Z,57.80
2018-06-16T19:51:14.107Z,58.70
2018-06-16T19:53:44.075Z,57.80
2018-06-16T19:56:13.786Z,57.90
2018-06-16T19:58:43.505Z,57.80
2018-06-16T20:01:13.179Z,58.00
2018-06-16T20:03:43.218Z,58.20
2018-06-16T20:06:13.207Z,57.80
2018-06-16T20:08:42.902Z,57.90
2018-06-16T20:11:12.549Z,58.30
2018-06-16T20:13:42.235Z,58.30
2018-06-16T20:16:11.907Z,58.20
2018-06-16T20:18:41.579Z,57.90
2018-06-16T20:21:11.214Z,58.30
2018-06-16T20:23:41.020Z,58.20
2018-06-16T20:26:10.672Z,57.90
2018-06-16T20:28:40.347Z,58.20
2018-06-16T20:31:09.997Z,58.40
2018-06-16T20:33:39.691Z,58.40
2018-06-16T20:36:09.393Z,58.00
2018-06-16T20:38:39.118Z,58.80
2018-06-16T20:41:08.774Z,58.80
2018-06-16T20:43:38.474Z,58.80
2018-06-16T20:46:08.234Z,59.10
2018-06-16T20:48:37.923Z,59.40
2018-06-16T20:51:07.739Z,59.80
2018-06-16T20:53:37.474Z,59.70
2018-06-16T20:56:07.160Z,59.70
2018-06-16T20:58:36.819Z,60.40
2018-06-16T21:01:06.666Z,61.40
2018-06-16T21:03:36.463Z,62.60
2018-06-16T21:06:06.402Z,63.20
2018-06-16T21:08:36.094Z,63.30
2018-06-16T21:11:09.909Z,63.80
2018-06-16T21:13:43.596Z,64.30
2018-06-16T21:16:14.977Z,64.10
2018-06-16T21:18:46.735Z,63.80
2018-06-16T21:21:17.550Z,63.40
2018-06-16T21:23:47.219Z,63.60
2018-06-16T21:26:17.590Z,62.60
2018-06-16T21:28:47.962Z,62.10
2018-06-16T21:31:18.711Z,63.10
2018-06-16T21:33:52.423Z,62.60
2018-06-16T21:36:26.595Z,62.90
2018-06-16T21:38:56.896Z,62.90
2018-06-16T21:41:30.842Z,63.20
2018-06-16T21:44:00.600Z,63.30
2018-06-16T21:49:02.968Z,64.40
2018-06-16T21:51:35.495Z,64.70
2018-06-16T21:54:09.588Z,65.50
2018-06-16T21:56:40.716Z,66.00
2018-06-16T21:59:10.626Z,66.70
2018-06-16T22:01:40.331Z,66.50
2018-06-16T22:04:14.101Z,66.30
2018-06-16T22:06:49.606Z,66.40
2018-06-16T22:09:19.344Z,66.40
2018-06-16T22:11:53.711Z,66.30
2018-06-16T22:14:23.858Z,66.80
2018-06-16T22:16:53.959Z,67.20
2018-06-16T22:19:24.177Z,66.70
2018-06-16T22:21:54.155Z,66.50
2018-06-16T22:24:23.890Z,66.60
2018-06-16T22:26:53.904Z,66.60
2018-06-16T22:29:23.559Z,67.00
2018-06-16T22:32:00.692Z,66.80
2018-06-16T22:34:30.354Z,66.90
2018-06-16T22:37:00.122Z,66.90
2018-06-16T22:39:30.391Z,67.10
2018-06-16T22:42:00.088Z,67.10
2018-06-16T22:44:35.690Z,67.00
2018-06-16T22:47:05.716Z,67.00
2018-06-16T22:49:35.397Z,67.20
2018-06-16T22:52:05.083Z,67.40
2018-06-16T22:54:34.819Z,67.90
2018-06-16T22:57:04.488Z,68.00
2018-06-16T22:59:34.706Z,67.40
2018-06-16T23:02:04.486Z,67.50
2018-06-16T23:04:34.166Z,67.70
2018-06-16T23:07:03.902Z,68.50
2018-06-16T23:09:33.583Z,68.80
2018-06-16T23:12:03.304Z,68.40
2018-06-16T23:14:33.011Z,69.30
2018-06-16T23:17:02.727Z,69.70
2018-06-16T23:19:32.402Z,69.40
2018-06-16T23:22:02.106Z,69.60
2018-06-16T23:24:31.783Z,70.30
2018-06-16T23:27:01.514Z,70.10
2018-06-16T23:29:31.195Z,70.50
2018-06-16T23:32:00.901Z,70.40
2018-06-16T23:34:30.655Z,70.10
2018-06-16T23:37:00.694Z,70.50
2018-06-16T23:39:30.390Z,70.20
2018-06-16T23:42:00.118Z,69.50
2018-06-16T23:44:29.794Z,69.40
2018-06-16T23:46:59.482Z,69.80
2018-06-16T23:49:29.163Z,70.10
2018-06-16T23:51:58.871Z,70.70
2018-06-16T23:54:28.550Z,71.00
2018-06-16T23:56:58.278Z,71.30
2018-06-16T23:59:28.011Z,71.20
